createdAt,value
2022-07-28T00:00:00.000Z,9.25
2022-07-28T00:15:00.000Z,9.25
2022-07-28T00:30:00.000Z,9.51
2022-07-28T00:45:00.000Z,10.15
2022-07-28T01:00:00.000Z,9.84
2022-07-28T01:15:00.000Z,10.15
2022-07-28T01:30:00.000Z,10.6
2022-07-28T01:45:00.000Z,11.07
2022-07-28T02:00:00.000Z,10.36
2022-07-28T02:15:00.000Z,11.31
2022-07-28T02:30:00.000Z,12.08
2022-07-28T02:45:00.000Z,11.09
2022-07-28T03:00:00.000Z,13.04
2022-07-28T03:15:00.000Z,12.73
2022-07-28T03:30:00.000Z,12.72
2022-07-28T03:45:00.000Z,13.06
2022-07-28T04:00:00.000Z,10.89
2022-07-28T04:15:00.000Z,11.33
2022-07-28T04:30:00.000Z,15.53
2022-07-28T04:45:00.000Z,10.29
2022-07-28T05:00:00.000Z,11.53
2022-07-28T05:15:00.000Z,10.21
2022-07-28T05:30:00.000Z,9.39
2022-07-28T05:45:00.000Z,8.52
2022-07-28T06:00:00.000Z,8.45
2022-07-28T06:15:00.000Z,8.07
2022-07-28T06:30:00.000Z,8.74
2022-07-28T06:45:00.000Z,6.59
2022-07-28T07:00:00.000Z,5.35
2022-07-28T07:15:00.000Z,5.48
2022-07-28T07:30:00.000Z,4.52
2022-07-28T07:45:00.000Z,4.51
2022-07-28T08:00:00.000Z,4.79
2022-07-28T08:15:00.000Z,7.13
2022-07-28T08:30:00.000Z,10.26
2022-07-28T08:45:00.000Z,10.72
2022-07-28T09:00:00.000Z,11.05
2022-07-28T09:15:00.000Z,8.67
2022-07-28T09:30:00.000Z,7.35
2022-07-28T09:45:00.000Z,7.34
2022-07-28T10:00:00.000Z,6.98
2022-07-28T10:15:00.000Z,7.25
2022-07-28T10:30:00.000Z,7.13
2022-07-28T10:45:00.000Z,7.36
2022-07-28T11:00:00.000Z,7.08
2022-07-28T11:15:00.000Z,7.18
2022-07-28T11:30:00.000Z,7.27
2022-07-28T11:45:00.000Z,7.22
2022-07-28T12:00:00.000Z,7.24
2022-07-28T12:15:00.000Z,7.59
2022-07-28T12:30:00.000Z,7.38
2022-07-28T12:45:00.000Z,8.22
2022-07-28T13:00:00.000Z,7.78
2022-07-28T13:15:00.000Z,7.6
2022-07-28T13:30:00.000Z,7.78
2022-07-28T13:45:00.000Z,7.67
2022-07-28T14:00:00.000Z,7.44
2022-07-28T14:15:00.000Z,7.92
2022-07-28T14:30:00.000Z,7.51
2022-07-28T14:45:00.000Z,7.75
2022-07-28T15:00:00.000Z,7.66
2022-07-28T15:15:00.000Z,7.6
2022-07-28T15:30:00.000Z,7.92
2022-07-28T15:45:00.000Z,8.13
2022-07-28T16:00:00.000Z,7.58
2022-07-28T16:15:00.000Z,8.41
2022-07-28T16:30:00.000Z,8.53
2022-07-28T16:45:00.000Z,9.59
2022-07-28T17:00:00.000Z,9.93
2022-07-28T17:15:00.000Z,9.87
2022-07-28T17:30:00.000Z,9.66
2022-07-28T17:45:00.000Z,10.12
2022-07-28T18:00:00.000Z,10.18
2022-07-28T18:15:00.000Z,10.09
2022-07-28T18:30:00.000Z,10.2
2022-07-28T18:45:00.000Z,10.2
2022-07-28T19:00:00.000Z,10.34
2022-07-28T19:15:00.000Z,10.02
2022-07-28T19:30:00.000Z,12.41
2022-07-28T19:45:00.000Z,12.91
2022-07-28T20:00:00.000Z,12.18
2022-07-28T20:15:00.000Z,12.13
2022-07-28T20:30:00.000Z,12.47
2022-07-28T20:45:00.000Z,10.75
2022-07-28T21:00:00.000Z,9.41
2022-07-28T21:15:00.000Z,7.07
2022-07-28T21:30:00.000Z,6.19
2022-07-28T21:45:00.000Z,5.14
2022-07-28T22:00:00.000Z,6.27
2022-07-28T22:15:00.000Z,5.99
2022-07-28T22:30:00.000Z,4.22
2022-07-28T22:45:00.000Z,7.96
2022-07-28T23:00:00.000Z,4.53
2022-07-28T23:15:00.000Z,5.15
2022-07-28T23:30:00.000Z,6.2
2022-07-28T23:45:00.000Z,4.12
